Time;durP1;ratioP1;P1;durP2;ratioP2;P2;SDS_P1;SDS_P2;PMS_P1;PMS_P2;Temp;Humidity;BMP_temperature;BMP_pressure;BME280_temperature;BME280_humidity;BME280_pressure;Samples;Min_cycle;Max_cycle;Signal;HPM_P1;HPM_P2
2021/10/14 00:19:20;;;;;;;27.07;12.80;;;;;;;3.50;90.50;101112.92;21118796;80;99196;-82
2021/10/14 00:49:23;;;;;;;22.58;12.60;;;;;;;3.57;91.09;101105.67;21123139;79;117736;-82
2021/10/14 01:19:24;;;;;;;25.55;13.75;;;;;;;3.59;91.90;101100.16;21123053;80;99982;-81
2021/10/14 01:49:24;;;;;;;21.13;10.20;;;;;;;3.68;92.97;101057.45;21382746;81;128545;-81
2021/10/14 02:19:25;;;;;;;16.80;9.17;;;;;;;3.85;93.70;101056.14;21347658;79;101179;-82
2021/10/14 02:49:26;;;;;;;13.88;8.10;;;;;;;4.00;93.49;101051.61;21117681;80;99420;-81
2021/10/14 03:19:27;;;;;;;15.60;8.63;;;;;;;4.42;95.93;101073.20;21071822;82;100397;-82
2021/10/14 03:49:28;;;;;;;20.50;10.73;;;;;;;4.82;97.34;101039.97;20704977;83;99228;-82
2021/10/14 04:19:29;;;;;;;22.97;10.70;;;;;;;5.11;97.10;101040.61;20741399;82;99344;-82
2021/10/14 04:49:31;;;;;;;21.90;10.50;;;;;;;5.23;96.74;101038.80;21141173;80;99284;-81
2021/10/14 05:19:32;;;;;;;23.07;10.67;;;;;;;5.29;97.26;101029.89;21141666;81;99398;-81
2021/10/14 05:49:33;;;;;;;24.25;12.07;;;;;;;5.41;97.30;101024.54;21166326;80;99601;-82
2021/10/14 06:19:33;;;;;;;26.43;11.90;;;;;;;5.59;97.57;101023.31;21137696;81;99275;-82
2021/10/14 06:49:34;;;;;;;24.80;11.85;;;;;;;5.86;97.90;101041.98;21379299;80;99574;-82
2021/10/14 07:19:36;;;;;;;25.52;13.05;;;;;;;6.22;98.06;101025.26;21365535;80;99482;-81
2021/10/14 07:49:37;;;;;;;24.77;13.53;;;;;;;6.65;98.07;101036.64;21266572;80;99586;-83
2021/10/14 08:19:38;;;;;;;32.40;15.40;;;;;;;7.09;98.12;101024.91;21206499;81;99340;-82
2021/10/14 08:49:45;;;;;;;28.60;15.97;;;;;;;7.49;97.94;101016.31;21072658;81;99316;-84
2021/10/14 09:19:46;;;;;;;28.83;17.10;;;;;;;7.93;97.56;100999.48;21088743;81;1269249;-83
2021/10/14 09:49:46;;;;;;;35.17;18.80;;;;;;;8.45;97.07;100975.02;21100285;81;2022593;-84
2021/10/14 10:19:49;;;;;;;44.20;28.20;;;;;;;8.84;96.59;100956.30;21120990;80;99571;-82
2021/10/14 10:49:56;;;;;;;23.60;13.33;;;;;;;8.93;97.30;100926.73;21102028;81;1913557;-84
2021/10/14 11:20:07;;;;;;;20.27;11.93;;;;;;;9.11;98.34;100906.59;21158822;80;99677;-84
2021/10/14 11:50:09;;;;;;;23.53;13.60;;;;;;;9.42;99.00;100897.73;21396878;81;99640;-83
2021/10/14 12:20:17;;;;;;;18.65;12.55;;;;;;;9.69;98.36;100871.23;21391498;80;99264;-81
2021/10/14 13:20:25;;;;;;;20.00;14.30;;;;;;;9.96;98.46;100838.61;21228664;81;99696;-85
2021/10/14 13:50:26;;;;;;;18.85;12.53;;;;;;;10.09;99.15;100820.85;21085872;81;99427;-83
2021/10/14 14:20:28;;;;;;;20.47;14.00;;;;;;;10.20;99.96;100788.84;21106623;82;99569;-82
2021/10/14 14:50:42;;;;;;;19.83;13.73;;;;;;;10.27;100.00;100780.70;21094048;81;2029685;-84
2021/10/14 15:20:43;;;;;;;22.10;13.67;;;;;;;10.38;100.00;100773.44;21094728;81;100570;-84
2021/10/14 15:50:46;;;;;;;24.00;13.80;;;;;;;10.36;100.00;100753.16;21109345;80;100100;-83
2021/10/14 16:20:47;;;;;;;24.02;14.15;;;;;;;10.34;100.00;100751.94;21091303;81;110252;-83
2021/10/14 16:50:47;;;;;;;25.53;16.43;;;;;;;10.35;100.00;100732.31;21168306;80;100313;-83
2021/10/14 17:21:20;;;;;;;33.45;20.08;;;;;;;10.38;100.00;100715.66;21138805;81;100177;-83
2021/10/14 17:51:11;;;;;;;35.37;21.07;;;;;;;10.36;100.00;100694.00;21158045;81;99933;-85
2021/10/14 18:51:33;;;;;;;40.97;22.10;;;;;;;10.49;100.00;100667.09;21089533;81;99890;-85
2021/10/14 20:21:57;;;;;;;27.47;17.67;;;;;;;11.12;100.00;100627.44;21289883;80;100215;-82
2021/10/14 20:52:04;;;;;;;31.52;18.82;;;;;;;11.24;100.00;100625.03;21361441;81;1934892;-84
2021/10/14 21:22:01;;;;;;;28.60;18.60;;;;;;;11.27;100.00;100615.42;21418048;80;227877;-85
2021/10/14 21:52:06;;;;;;;;;;;;;;;11.32;100.00;100605.44;21180197;81;105412;-86
2021/10/14 22:22:06;;;;;;;29.00;17.10;;;;;;;11.36;100.00;100602.72;21107416;81;155461;-86
2021/10/14 22:52:07;;;;;;;25.55;17.00;;;;;;;11.34;100.00;100574.77;21207492;80;253754;-85
2021/10/14 23:22:10;;;;;;;25.37;16.50;;;;;;;11.34;100.00;100559.61;21190432;80;119923;-85
2021/10/14 23:52:11;;;;;;;24.87;16.83;;;;;;;11.31;100.00;100541.87;21125639;81;265037;-85
